Pronóstico
Mapa Interactivo
Aviación
Climatología
Hidrometeorología
Agrometeorología
Estaciones Automáticas
Transparencia
OMM WMO
Portada
Institución
Noticias
Imágenes
Tsunami
Historial
Boletines y Alertas
Contactos
Buscar Contenidos
Informe del Tiempo

 

                VUELOS DE BAJO NIVEL DESDE SUPERFICIE HASTA 24,000 PIES. 

VALIDO DESDE 191200Z...………………………HASTA 200000Z
 

SANTO DOMINGO FIR...PORT-AU-PRINCE FIR...HISPANIOLA... HISPANIOLA...SCT020 SCT060. ISOL SHRA. OCNL VIS 3-5SM BR TIL 13Z.18Z SCT020 SCT060. ISOL SHRA/TSRA. OTLK...VFR SHRA.WTRS...SCT030 SCT060. ISOL SHRA. WND NE 20 KTS. OTLK...VFR SHRA WND. 

 

5,000 FT.

10,000 FT.

18,000 FT.

24,000 FT.

MDSD

0620KT+17ºC

0625KT+10ºC

0515KT-04ºC

0420KT-17ºC

MTPP

0720KT+17ºC

0725KT+10ºC

0715KT-04ºC

0420KT-17ºC

TJSJ

0420KT+16ºC

0320KT+09ºC

0330KT-07ºC

0315KT-16ºC

 

 

 

 

 

TAF 

TAF MDPP 191000Z 1912/2012 00000KT 9999 SCT020 BECMG 1915/1917 06010KT=

TAF MDST 191000Z 1912/2012 12010KT 9999 SCT024 PROB30 1912/1918 8000 -SH FEW020CB BKN022=

TAF MDPC 191000Z 1912/2012 08010KT 9999 SCT022=

TAF MDBH 191000Z 1912/2012 00000KT 9999 FEW016 SCT300 FM1913 13012KT=

TAF MDJB 191000Z 1912/2012 04008KT 9999 FEW016 PROB30 1917/1921 7000 -SHRA FEW016CB BKN018=

TAF MDSD 191000Z 1912/2012 03004KT 9999 SCT018 BECMG 1914/1916 09008KT PROB30 1916/1920 7000 -TSRA FEW016CB BKN018=

TAF MDLR 191000Z 1912/2012 00000KT 9999 FEW016 BECMG 1914/1916 09010KT=

TAF MDCY 191000Z 1912/2012 00000KT 9999 SCT016 BECMG 1915/1917 09010KT PROB30 1918/1920 7000 -SHRA FEW016CB BKN018= 

KMIA 190859Z 1909/2012 08008KT P6SM SCT030 SCT250 FM191600 10010KT P6SM SCT030 SCT250 FM200200 VRB05KT P6SM SCT040 SCT250 

KJFK 190832Z 1909/2012 26009KT P6SM SKC FM191500 24013G19KT P6SM SKC FM191800 22014G22KT P6SM SCT250 FM200000 22015G20KT P6SM BKN250 FM200600 22015G25KT P6SM VCSH SCT040 BKN080 OVC120 

TJSJ 190539Z 1906/2006 08010KT P6SM VCSH FEW022 SCT040 FM191430 05016G22KT P6SM FEW025 SCT035 FM192200 08011KT P6SM VCSH SCT030 

TAF MKJP 190515Z 1906/2006 35005KT 9999 FEW022CB BECMG 1914/1916 14020KT BECMG 2001/2003 35005KT 

MUHA 190500Z 1906/2006 08005KT 9000 FEW030 BECMG 1914/1916 09013KT BECMG 2003/2005 VRB03KT 

TAF MUGM 1907/2007 01007KT 9999 FEW030 BKN280 QNH2992INS FM191600 11018G25KT 9999 VCTS FEW030CB SCT280 510006 QNH2996INS BECMG 1920/1922 01010KT 9999 NSW FEW030 SCT150 BKN280 500000 QNH2990INS T24/1911Z T31/1918Z FN00192 

TAF TNCC 190942Z 1912/2012 06013KT 9999 SCT020 SCT035 TEMPO 1912/2012 BKN014 PROB40 1914/2012 4000 SHRA FEW012CB 

TAF TFFR 190500Z 1906/2006 VRB03KT 9999 SCT030 PROB30 TEMPO 1918/1924 3000 SHRA SCT018TCU 

PREPARADO POR: ELIZABETH FELIZ. 19 DE OCTUBRE DEL 2018-